sensor_id;sensor_type;location;lat;lon;timestamp;P1;durP1;ratioP1;P2;durP2;ratioP2
35488;SDS011;21602;55.670;37.578;2023-08-21T00:00:12;2.97;;;2.78;;
35488;SDS011;21602;55.670;37.578;2023-08-21T00:02:39;2.22;;;2.13;;
35488;SDS011;21602;55.670;37.578;2023-08-21T00:05:05;4.82;;;2.88;;
35488;SDS011;21602;55.670;37.578;2023-08-21T00:07:31;2.75;;;2.55;;
35488;SDS011;21602;55.670;37.578;2023-08-21T00:09:57;4.72;;;3.03;;
35488;SDS011;21602;55.670;37.578;2023-08-21T00:12:23;3.70;;;3.20;;
35488;SDS011;21602;55.670;37.578;2023-08-21T00:14:49;3.25;;;2.97;;
35488;SDS011;21602;55.670;37.578;2023-08-21T00:17:14;4.70;;;3.05;;
35488;SDS011;21602;55.670;37.578;2023-08-21T00:19:40;3.60;;;3.30;;
35488;SDS011;21602;55.670;37.578;2023-08-21T00:22:06;3.92;;;3.53;;
35488;SDS011;21602;55.670;37.578;2023-08-21T00:24:32;5.18;;;3.63;;
35488;SDS011;21602;55.670;37.578;2023-08-21T00:26:58;3.97;;;3.15;;
35488;SDS011;21602;55.670;37.578;2023-08-21T00:29:24;4.30;;;3.90;;
35488;SDS011;21602;55.670;37.578;2023-08-21T00:31:50;4.82;;;4.32;;
35488;SDS011;21602;55.670;37.578;2023-08-21T00:34:17;4.32;;;3.92;;
35488;SDS011;21602;55.670;37.578;2023-08-21T00:36:42;5.47;;;4.28;;
35488;SDS011;21602;55.670;37.578;2023-08-21T00:39:08;5.32;;;4.88;;
35488;SDS011;21602;55.670;37.578;2023-08-21T00:41:34;5.53;;;4.80;;
35488;SDS011;21602;55.670;37.578;2023-08-21T00:44:00;4.20;;;3.90;;
35488;SDS011;21602;55.670;37.578;2023-08-21T00:46:26;5.53;;;5.03;;
35488;SDS011;21602;55.670;37.578;2023-08-21T00:48:52;5.28;;;4.72;;
35488;SDS011;21602;55.670;37.578;2023-08-21T00:51:18;5.57;;;4.93;;
35488;SDS011;21602;55.670;37.578;2023-08-21T00:53:44;6.63;;;5.28;;
35488;SDS011;21602;55.670;37.578;2023-08-21T00:56:12;6.72;;;5.40;;
35488;SDS011;21602;55.670;37.578;2023-08-21T00:58:39;7.07;;;5.90;;
35488;SDS011;21602;55.670;37.578;2023-08-21T01:01:05;14.93;;;5.45;;
35488;SDS011;21602;55.670;37.578;2023-08-21T01:03:31;6.18;;;5.55;;
35488;SDS011;21602;55.670;37.578;2023-08-21T01:05:57;5.13;;;4.63;;
35488;SDS011;21602;55.670;37.578;2023-08-21T01:08:35;6.00;;;5.40;;
35488;SDS011;21602;55.670;37.578;2023-08-21T01:17:33;5.78;;;5.22;;
35488;SDS011;21602;55.670;37.578;2023-08-21T01:20:01;6.85;;;5.95;;
35488;SDS011;21602;55.670;37.578;2023-08-21T01:22:36;5.50;;;5.00;;
35488;SDS011;21602;55.670;37.578;2023-08-21T01:25:05;5.43;;;4.68;;
35488;SDS011;21602;55.670;37.578;2023-08-21T01:27:33;4.68;;;4.28;;
35488;SDS011;21602;55.670;37.578;2023-08-21T01:30:00;4.85;;;4.45;;
35488;SDS011;21602;55.670;37.578;2023-08-21T01:35:05;5.03;;;4.45;;
35488;SDS011;21602;55.670;37.578;2023-08-21T01:37:33;7.80;;;4.40;;
35488;SDS011;21602;55.670;37.578;2023-08-21T01:40:00;7.07;;;5.00;;
35488;SDS011;21602;55.670;37.578;2023-08-21T01:42:26;5.80;;;5.30;;
35488;SDS011;21602;55.670;37.578;2023-08-21T01:44:52;8.07;;;5.32;;
35488;SDS011;21602;55.670;37.578;2023-08-21T01:47:17;5.80;;;5.25;;
35488;SDS011;21602;55.670;37.578;2023-08-21T01:49:43;6.68;;;5.03;;
35488;SDS011;21602;55.670;37.578;2023-08-21T01:52:09;6.90;;;5.65;;
35488;SDS011;21602;55.670;37.578;2023-08-21T01:54:36;5.45;;;4.90;;
35488;SDS011;21602;55.670;37.578;2023-08-21T01:57:02;5.50;;;5.00;;
35488;SDS011;21602;55.670;37.578;2023-08-21T01:59:28;7.72;;;5.32;;
35488;SDS011;21602;55.670;37.578;2023-08-21T02:01:54;8.45;;;5.85;;
35488;SDS011;21602;55.670;37.578;2023-08-21T02:04:19;6.40;;;5.80;;
35488;SDS011;21602;55.670;37.578;2023-08-21T02:06:45;7.80;;;5.32;;
35488;SDS011;21602;55.670;37.578;2023-08-21T02:09:11;7.75;;;4.95;;
35488;SDS011;21602;55.670;37.578;2023-08-21T02:11:37;5.68;;;5.13;;
35488;SDS011;21602;55.670;37.578;2023-08-21T02:14:03;5.50;;;4.95;;
35488;SDS011;21602;55.670;37.578;2023-08-21T02:16:29;5.85;;;4.78;;
35488;SDS011;21602;55.670;37.578;2023-08-21T02:18:55;6.47;;;5.28;;
35488;SDS011;21602;55.670;37.578;2023-08-21T02:21:22;8.52;;;5.78;;
35488;SDS011;21602;55.670;37.578;2023-08-21T02:23:48;5.82;;;5.15;;
35488;SDS011;21602;55.670;37.578;2023-08-21T02:26:13;7.88;;;5.30;;
35488;SDS011;21602;55.670;37.578;2023-08-21T02:28:39;5.85;;;5.20;;
35488;SDS011;21602;55.670;37.578;2023-08-21T02:31:08;5.88;;;4.25;;
35488;SDS011;21602;55.670;37.578;2023-08-21T02:33:36;4.28;;;3.88;;
35488;SDS011;21602;55.670;37.578;2023-08-21T02:36:02;4.65;;;3.53;;
35488;SDS011;21602;55.670;37.578;2023-08-21T02:38:29;8.05;;;3.50;;
35488;SDS011;21602;55.670;37.578;2023-08-21T02:40:56;4.25;;;3.83;;
35488;SDS011;21602;55.670;37.578;2023-08-21T02:43:22;5.50;;;3.75;;
35488;SDS011;21602;55.670;37.578;2023-08-21T02:45:48;5.53;;;3.63;;
35488;SDS011;21602;55.670;37.578;2023-08-21T02:48:14;4.03;;;3.63;;
35488;SDS011;21602;55.670;37.578;2023-08-21T02:50:50;6.22;;;4.20;;
35488;SDS011;21602;55.670;37.578;2023-08-21T02:53:15;3.58;;;3.28;;
35488;SDS011;21602;55.670;37.578;2023-08-21T02:55:41;6.30;;;3.83;;
35488;SDS011;21602;55.670;37.578;2023-08-21T02:58:07;5.85;;;4.22;;
35488;SDS011;21602;55.670;37.578;2023-08-21T03:00:34;5.85;;;4.10;;
35488;SDS011;21602;55.670;37.578;2023-08-21T03:03:00;6.43;;;4.32;;
35488;SDS011;21602;55.670;37.578;2023-08-21T03:05:26;5.65;;;4.10;;
35488;SDS011;21602;55.670;37.578;2023-08-21T03:07:52;5.07;;;4.10;;
35488;SDS011;21602;55.670;37.578;2023-08-21T03:10:18;6.40;;;3.80;;
35488;SDS011;21602;55.670;37.578;2023-08-21T03:12:44;4.57;;;4.18;;
35488;SDS011;21602;55.670;37.578;2023-08-21T03:15:10;7.63;;;4.15;;
35488;SDS011;21602;55.670;37.578;2023-08-21T03:17:36;8.18;;;4.00;;
35488;SDS011;21602;55.670;37.578;2023-08-21T03:20:02;10.52;;;4.82;;
35488;SDS011;21602;55.670;37.578;2023-08-21T03:22:31;5.43;;;3.80;;
35488;SDS011;21602;55.670;37.578;2023-08-21T03:24:57;4.00;;;3.60;;
35488;SDS011;21602;55.670;37.578;2023-08-21T03:27:24;4.53;;;3.65;;
35488;SDS011;21602;55.670;37.578;2023-08-21T03:29:59;7.15;;;4.07;;
35488;SDS011;21602;55.670;37.578;2023-08-21T03:32:26;5.60;;;3.60;;
35488;SDS011;21602;55.670;37.578;2023-08-21T03:34:52;4.20;;;3.70;;
35488;SDS011;21602;55.670;37.578;2023-08-21T03:37:20;3.63;;;3.00;;
35488;SDS011;21602;55.670;37.578;2023-08-21T03:39:46;3.17;;;2.88;;
35488;SDS011;21602;55.670;37.578;2023-08-21T03:42:11;3.28;;;2.97;;
35488;SDS011;21602;55.670;37.578;2023-08-21T03:44:39;4.47;;;3.67;;
35488;SDS011;21602;55.670;37.578;2023-08-21T03:47:06;6.10;;;2.90;;
35488;SDS011;21602;55.670;37.578;2023-08-21T03:49:37;5.05;;;3.28;;
35488;SDS011;21602;55.670;37.578;2023-08-21T03:52:02;5.00;;;3.33;;
35488;SDS011;21602;55.670;37.578;2023-08-21T03:54:28;6.13;;;3.30;;
35488;SDS011;21602;55.670;37.578;2023-08-21T03:56:54;4.68;;;2.90;;
35488;SDS011;21602;55.670;37.578;2023-08-21T03:59:21;5.72;;;2.70;;
35488;SDS011;21602;55.670;37.578;2023-08-21T04:01:49;3.33;;;3.03;;
35488;SDS011;21602;55.670;37.578;2023-08-21T04:04:15;3.33;;;3.03;;
35488;SDS011;21602;55.670;37.578;2023-08-21T04:06:41;4.97;;;2.55;;
35488;SDS011;21602;55.670;37.578;2023-08-21T04:09:06;2.75;;;2.47;;
35488;SDS011;21602;55.670;37.578;2023-08-21T04:11:33;4.00;;;2.50;;
35488;SDS011;21602;55.670;37.578;2023-08-21T04:14:01;5.78;;;3.28;;
35488;SDS011;21602;55.670;37.578;2023-08-21T04:16:27;9.38;;;2.90;;
35488;SDS011;21602;55.670;37.578;2023-08-21T04:18:53;2.88;;;2.63;;
35488;SDS011;21602;55.670;37.578;2023-08-21T04:21:19;4.18;;;3.13;;
35488;SDS011;21602;55.670;37.578;2023-08-21T04:23:45;5.40;;;2.90;;
35488;SDS011;21602;55.670;37.578;2023-08-21T04:26:11;4.07;;;2.80;;
35488;SDS011;21602;55.670;37.578;2023-08-21T04:28:37;2.67;;;2.47;;
35488;SDS011;21602;55.670;37.578;2023-08-21T04:31:06;3.72;;;2.20;;
35488;SDS011;21602;55.670;37.578;2023-08-21T04:33:34;7.80;;;2.17;;
35488;SDS011;21602;55.670;37.578;2023-08-21T04:36:00;4.93;;;2.40;;
35488;SDS011;21602;55.670;37.578;2023-08-21T04:38:27;6.63;;;2.78;;
35488;SDS011;21602;55.670;37.578;2023-08-21T04:40:54;3.85;;;2.22;;
35488;SDS011;21602;55.670;37.578;2023-08-21T04:43:20;1.77;;;1.67;;
35488;SDS011;21602;55.670;37.578;2023-08-21T04:45:51;7.90;;;2.60;;
35488;SDS011;21602;55.670;37.578;2023-08-21T04:48:23;2.25;;;1.90;;
35488;SDS011;21602;55.670;37.578;2023-08-21T04:50:49;6.35;;;1.92;;
35488;SDS011;21602;55.670;37.578;2023-08-21T04:53:15;2.88;;;2.17;;
35488;SDS011;21602;55.670;37.578;2023-08-21T04:55:41;6.15;;;3.08;;
35488;SDS011;21602;55.670;37.578;2023-08-21T04:58:08;5.75;;;2.03;;
35488;SDS011;21602;55.670;37.578;2023-08-21T05:00:35;13.45;;;6.10;;
35488;SDS011;21602;55.670;37.578;2023-08-21T05:03:01;15.82;;;6.60;;
35488;SDS011;21602;55.670;37.578;2023-08-21T05:05:28;10.88;;;4.30;;
35488;SDS011;21602;55.670;37.578;2023-08-21T05:07:54;5.45;;;1.88;;
35488;SDS011;21602;55.670;37.578;2023-08-21T05:10:19;3.28;;;1.85;;
35488;SDS011;21602;55.670;37.578;2023-08-21T05:12:45;2.55;;;1.88;;
35488;SDS011;21602;55.670;37.578;2023-08-21T05:15:12;8.05;;;2.13;;
35488;SDS011;21602;55.670;37.578;2023-08-21T05:17:38;6.68;;;2.05;;
35488;SDS011;21602;55.670;37.578;2023-08-21T05:20:04;8.52;;;2.10;;
35488;SDS011;21602;55.670;37.578;2023-08-21T05:22:33;5.93;;;1.67;;
35488;SDS011;21602;55.670;37.578;2023-08-21T05:24:59;7.50;;;1.95;;
35488;SDS011;21602;55.670;37.578;2023-08-21T05:27:27;4.68;;;2.15;;
35488;SDS011;21602;55.670;37.578;2023-08-21T05:29:53;2.90;;;1.70;;
35488;SDS011;21602;55.670;37.578;2023-08-21T05:32:19;2.85;;;1.55;;
35488;SDS011;21602;55.670;37.578;2023-08-21T05:34:45;4.03;;;1.55;;
35488;SDS011;21602;55.670;37.578;2023-08-21T05:37:11;7.15;;;1.60;;
35488;SDS011;21602;55.670;37.578;2023-08-21T05:39:38;2.50;;;1.17;;
35488;SDS011;21602;55.670;37.578;2023-08-21T05:42:09;2.38;;;1.42;;
35488;SDS011;21602;55.670;37.578;2023-08-21T05:44:35;2.95;;;1.77;;
35488;SDS011;21602;55.670;37.578;2023-08-21T05:47:01;2.30;;;1.30;;
35488;SDS011;21602;55.670;37.578;2023-08-21T05:49:27;3.58;;;1.58;;
35488;SDS011;21602;55.670;37.578;2023-08-21T05:51:53;2.90;;;1.58;;
35488;SDS011;21602;55.670;37.578;2023-08-21T05:54:19;1.83;;;1.20;;
35488;SDS011;21602;55.670;37.578;2023-08-21T05:56:48;2.90;;;1.33;;
35488;SDS011;21602;55.670;37.578;2023-08-21T05:59:23;5.00;;;1.77;;
35488;SDS011;21602;55.670;37.578;2023-08-21T06:01:54;2.65;;;1.10;;
35488;SDS011;21602;55.670;37.578;2023-08-21T06:04:21;3.13;;;1.80;;
35488;SDS011;21602;55.670;37.578;2023-08-21T06:06:55;8.20;;;2.05;;
35488;SDS011;21602;55.670;37.578;2023-08-21T06:09:21;3.58;;;1.40;;
35488;SDS011;21602;55.670;37.578;2023-08-21T06:11:50;2.92;;;1.20;;
35488;SDS011;21602;55.670;37.578;2023-08-21T06:14:19;2.40;;;1.33;;
35488;SDS011;21602;55.670;37.578;2023-08-21T06:16:45;3.97;;;1.45;;
35488;SDS011;21602;55.670;37.578;2023-08-21T06:19:15;2.33;;;1.00;;
35488;SDS011;21602;55.670;37.578;2023-08-21T06:21:40;3.83;;;1.40;;
35488;SDS011;21602;55.670;37.578;2023-08-21T06:24:06;4.72;;;1.27;;
35488;SDS011;21602;55.670;37.578;2023-08-21T06:26:32;3.83;;;1.67;;
35488;SDS011;21602;55.670;37.578;2023-08-21T06:28:59;1.80;;;1.30;;
35488;SDS011;21602;55.670;37.578;2023-08-21T06:31:26;8.27;;;1.30;;
35488;SDS011;21602;55.670;37.578;2023-08-21T06:33:53;3.95;;;1.52;;
35488;SDS011;21602;55.670;37.578;2023-08-21T06:36:26;6.10;;;3.45;;
35488;SDS011;21602;55.670;37.578;2023-08-21T06:38:55;4.57;;;1.40;;
35488;SDS011;21602;55.670;37.578;2023-08-21T06:41:23;4.28;;;1.20;;
35488;SDS011;21602;55.670;37.578;2023-08-21T06:43:53;3.83;;;1.25;;
35488;SDS011;21602;55.670;37.578;2023-08-21T06:46:20;2.65;;;1.20;;
35488;SDS011;21602;55.670;37.578;2023-08-21T06:48:50;2.95;;;1.48;;
35488;SDS011;21602;55.670;37.578;2023-08-21T06:51:16;2.55;;;1.35;;
35488;SDS011;21602;55.670;37.578;2023-08-21T06:53:42;2.70;;;1.60;;
35488;SDS011;21602;55.670;37.578;2023-08-21T06:56:21;4.40;;;1.30;;
35488;SDS011;21602;55.670;37.578;2023-08-21T06:58:59;3.53;;;1.25;;
35488;SDS011;21602;55.670;37.578;2023-08-21T07:01:25;3.80;;;1.45;;
35488;SDS011;21602;55.670;37.578;2023-08-21T07:03:54;4.07;;;1.58;;
35488;SDS011;21602;55.670;37.578;2023-08-21T07:06:33;5.95;;;1.75;;
35488;SDS011;21602;55.670;37.578;2023-08-21T07:09:04;2.92;;;1.17;;
35488;SDS011;21602;55.670;37.578;2023-08-21T07:11:29;6.68;;;1.55;;
35488;SDS011;21602;55.670;37.578;2023-08-21T07:13:57;4.53;;;1.27;;
35488;SDS011;21602;55.670;37.578;2023-08-21T07:16:23;3.38;;;1.88;;
35488;SDS011;21602;55.670;37.578;2023-08-21T07:18:48;8.18;;;2.13;;
35488;SDS011;21602;55.670;37.578;2023-08-21T07:21:14;4.68;;;1.63;;
35488;SDS011;21602;55.670;37.578;2023-08-21T07:23:41;4.75;;;3.20;;
35488;SDS011;21602;55.670;37.578;2023-08-21T07:26:16;2.00;;;1.40;;
35488;SDS011;21602;55.670;37.578;2023-08-21T07:28:48;9.65;;;6.15;;
35488;SDS011;21602;55.670;37.578;2023-08-21T07:31:14;6.50;;;1.52;;
35488;SDS011;21602;55.670;37.578;2023-08-21T07:33:41;10.80;;;7.22;;
35488;SDS011;21602;55.670;37.578;2023-08-21T07:36:13;5.93;;;1.73;;
35488;SDS011;21602;55.670;37.578;2023-08-21T07:38:48;4.25;;;2.00;;
35488;SDS011;21602;55.670;37.578;2023-08-21T07:41:19;5.95;;;3.90;;
35488;SDS011;21602;55.670;37.578;2023-08-21T07:43:45;5.75;;;2.35;;
35488;SDS011;21602;55.670;37.578;2023-08-21T07:46:14;2.20;;;1.33;;
35488;SDS011;21602;55.670;37.578;2023-08-21T07:48:44;6.65;;;2.10;;
35488;SDS011;21602;55.670;37.578;2023-08-21T07:51:10;6.68;;;1.95;;
35488;SDS011;21602;55.670;37.578;2023-08-21T07:53:39;2.72;;;1.30;;
35488;SDS011;21602;55.670;37.578;2023-08-21T07:56:05;3.50;;;2.00;;
35488;SDS011;21602;55.670;37.578;2023-08-21T07:58:35;3.90;;;1.48;;
35488;SDS011;21602;55.670;37.578;2023-08-21T08:01:01;11.65;;;2.15;;
35488;SDS011;21602;55.670;37.578;2023-08-21T08:03:27;2.65;;;1.08;;
35488;SDS011;21602;55.670;37.578;2023-08-21T08:05:53;7.25;;;2.22;;
35488;SDS011;21602;55.670;37.578;2023-08-21T08:08:19;1.80;;;1.30;;
35488;SDS011;21602;55.670;37.578;2023-08-21T08:10:51;2.28;;;1.50;;
35488;SDS011;21602;55.670;37.578;2023-08-21T08:13:27;3.33;;;2.13;;
35488;SDS011;21602;55.670;37.578;2023-08-21T08:15:53;4.60;;;1.90;;
35488;SDS011;21602;55.670;37.578;2023-08-21T08:18:19;4.72;;;2.17;;
35488;SDS011;21602;55.670;37.578;2023-08-21T08:20:50;2.17;;;1.48;;
35488;SDS011;21602;55.670;37.578;2023-08-21T08:23:17;7.07;;;1.90;;
35488;SDS011;21602;55.670;37.578;2023-08-21T08:25:46;3.85;;;1.45;;
35488;SDS011;21602;55.670;37.578;2023-08-21T08:28:16;4.00;;;2.25;;
35488;SDS011;21602;55.670;37.578;2023-08-21T08:30:45;7.28;;;1.70;;
35488;SDS011;21602;55.670;37.578;2023-08-21T08:33:12;2.00;;;1.40;;
35488;SDS011;21602;55.670;37.578;2023-08-21T08:35:38;1.75;;;1.40;;
35488;SDS011;21602;55.670;37.578;2023-08-21T08:38:09;3.30;;;2.45;;
35488;SDS011;21602;55.670;37.578;2023-08-21T08:40:36;2.22;;;1.58;;
35488;SDS011;21602;55.670;37.578;2023-08-21T08:43:07;6.32;;;1.83;;
35488;SDS011;21602;55.670;37.578;2023-08-21T08:45:36;2.47;;;1.45;;
35488;SDS011;21602;55.670;37.578;2023-08-21T08:48:02;2.63;;;1.40;;
35488;SDS011;21602;55.670;37.578;2023-08-21T08:50:35;3.65;;;1.92;;
35488;SDS011;21602;55.670;37.578;2023-08-21T08:53:17;10.85;;;2.45;;
35488;SDS011;21602;55.670;37.578;2023-08-21T08:55:49;3.58;;;1.52;;
35488;SDS011;21602;55.670;37.578;2023-08-21T08:58:18;2.13;;;1.30;;
35488;SDS011;21602;55.670;37.578;2023-08-21T09:00:44;1.73;;;1.17;;
35488;SDS011;21602;55.670;37.578;2023-08-21T09:03:10;3.95;;;2.17;;
35488;SDS011;21602;55.670;37.578;2023-08-21T09:05:38;6.50;;;1.60;;
35488;SDS011;21602;55.670;37.578;2023-08-21T09:08:15;2.50;;;1.33;;
35488;SDS011;21602;55.670;37.578;2023-08-21T09:10:43;2.30;;;1.30;;
35488;SDS011;21602;55.670;37.578;2023-08-21T09:13:12;1.60;;;1.25;;
35488;SDS011;21602;55.670;37.578;2023-08-21T09:15:41;3.35;;;1.40;;
35488;SDS011;21602;55.670;37.578;2023-08-21T09:18:17;5.32;;;1.58;;
35488;SDS011;21602;55.670;37.578;2023-08-21T09:20:43;3.03;;;2.72;;
35488;SDS011;21602;55.670;37.578;2023-08-21T09:23:18;6.05;;;3.80;;
35488;SDS011;21602;55.670;37.578;2023-08-21T09:25:49;2.75;;;2.13;;
35488;SDS011;21602;55.670;37.578;2023-08-21T09:28:19;3.10;;;1.30;;
35488;SDS011;21602;55.670;37.578;2023-08-21T09:30:50;2.20;;;1.35;;
35488;SDS011;21602;55.670;37.578;2023-08-21T09:33:18;1.42;;;1.13;;
35488;SDS011;21602;55.670;37.578;2023-08-21T09:35:48;2.38;;;1.42;;
35488;SDS011;21602;55.670;37.578;2023-08-21T09:38:17;15.60;;;8.60;;
35488;SDS011;21602;55.670;37.578;2023-08-21T09:40:51;7.25;;;5.82;;
35488;SDS011;21602;55.670;37.578;2023-08-21T09:43:19;4.50;;;3.08;;
35488;SDS011;21602;55.670;37.578;2023-08-21T09:45:48;3.35;;;1.60;;
35488;SDS011;21602;55.670;37.578;2023-08-21T09:48:16;4.35;;;1.73;;
35488;SDS011;21602;55.670;37.578;2023-08-21T09:50:42;6.85;;;5.28;;
35488;SDS011;21602;55.670;37.578;2023-08-21T09:53:12;5.95;;;1.67;;
35488;SDS011;21602;55.670;37.578;2023-08-21T09:55:58;2.53;;;1.48;;
35488;SDS011;21602;55.670;37.578;2023-08-21T09:58:29;1.92;;;1.38;;
35488;SDS011;21602;55.670;37.578;2023-08-21T10:00:57;7.28;;;3.67;;
35488;SDS011;21602;55.670;37.578;2023-08-21T10:03:25;3.53;;;2.25;;
35488;SDS011;21602;55.670;37.578;2023-08-21T10:05:54;6.97;;;3.20;;
35488;SDS011;21602;55.670;37.578;2023-08-21T10:08:28;4.75;;;2.00;;
35488;SDS011;21602;55.670;37.578;2023-08-21T10:10:55;2.05;;;1.58;;
35488;SDS011;21602;55.670;37.578;2023-08-21T10:13:23;7.53;;;1.35;;
35488;SDS011;21602;55.670;37.578;2023-08-21T10:15:49;6.28;;;5.05;;
35488;SDS011;21602;55.670;37.578;2023-08-21T10:18:29;2.45;;;1.20;;
35488;SDS011;21602;55.670;37.578;2023-08-21T10:21:09;3.10;;;1.58;;
35488;SDS011;21602;55.670;37.578;2023-08-21T10:23:40;2.08;;;1.35;;
35488;SDS011;21602;55.670;37.578;2023-08-21T10:26:09;2.92;;;2.42;;
35488;SDS011;21602;55.670;37.578;2023-08-21T10:31:27;6.65;;;3.97;;
35488;SDS011;21602;55.670;37.578;2023-08-21T10:33:54;5.13;;;2.33;;
35488;SDS011;21602;55.670;37.578;2023-08-21T10:39:20;5.45;;;3.22;;
35488;SDS011;21602;55.670;37.578;2023-08-21T10:41:54;3.83;;;2.13;;
35488;SDS011;21602;55.670;37.578;2023-08-21T10:47:15;3.97;;;2.47;;
35488;SDS011;21602;55.670;37.578;2023-08-21T10:49:46;6.10;;;1.90;;
35488;SDS011;21602;55.670;37.578;2023-08-21T10:52:14;5.47;;;2.10;;
35488;SDS011;21602;55.670;37.578;2023-08-21T10:54:50;4.85;;;2.97;;
35488;SDS011;21602;55.670;37.578;2023-08-21T10:57:19;4.80;;;1.70;;
35488;SDS011;21602;55.670;37.578;2023-08-21T10:59:57;3.55;;;1.75;;
35488;SDS011;21602;55.670;37.578;2023-08-21T11:02:32;24.38;;;2.03;;
35488;SDS011;21602;55.670;37.578;2023-08-21T11:05:01;4.90;;;1.42;;
35488;SDS011;21602;55.670;37.578;2023-08-21T11:07:38;2.05;;;1.33;;
35488;SDS011;21602;55.670;37.578;2023-08-21T11:10:15;6.85;;;2.67;;
35488;SDS011;21602;55.670;37.578;2023-08-21T11:12:51;6.90;;;2.38;;
35488;SDS011;21602;55.670;37.578;2023-08-21T11:17:59;7.45;;;4.65;;
35488;SDS011;21602;55.670;37.578;2023-08-21T11:20:27;4.07;;;1.30;;
35488;SDS011;21602;55.670;37.578;2023-08-21T11:22:58;7.68;;;4.35;;
35488;SDS011;21602;55.670;37.578;2023-08-21T11:25:28;2.92;;;1.90;;
35488;SDS011;21602;55.670;37.578;2023-08-21T11:27:58;3.88;;;1.30;;
35488;SDS011;21602;55.670;37.578;2023-08-21T11:30:27;1.40;;;1.20;;
35488;SDS011;21602;55.670;37.578;2023-08-21T11:33:09;3.08;;;1.50;;
35488;SDS011;21602;55.670;37.578;2023-08-21T11:35:37;3.28;;;1.33;;
35488;SDS011;21602;55.670;37.578;2023-08-21T11:38:04;8.93;;;4.75;;
35488;SDS011;21602;55.670;37.578;2023-08-21T11:40:30;4.35;;;2.70;;
35488;SDS011;21602;55.670;37.578;2023-08-21T11:43:00;11.32;;;4.35;;
35488;SDS011;21602;55.670;37.578;2023-08-21T11:45:27;4.05;;;1.98;;
35488;SDS011;21602;55.670;37.578;2023-08-21T11:47:55;11.43;;;4.00;;
35488;SDS011;21602;55.670;37.578;2023-08-21T11:50:21;3.80;;;1.33;;
35488;SDS011;21602;55.670;37.578;2023-08-21T11:52:50;4.93;;;1.70;;
35488;SDS011;21602;55.670;37.578;2023-08-21T11:55:17;7.72;;;3.83;;
35488;SDS011;21602;55.670;37.578;2023-08-21T11:57:48;2.38;;;1.00;;
35488;SDS011;21602;55.670;37.578;2023-08-21T12:00:15;4.05;;;1.30;;
35488;SDS011;21602;55.670;37.578;2023-08-21T12:02:57;5.20;;;2.00;;
35488;SDS011;21602;55.670;37.578;2023-08-21T12:05:25;4.85;;;1.88;;
35488;SDS011;21602;55.670;37.578;2023-08-21T12:07:52;3.25;;;1.83;;
35488;SDS011;21602;55.670;37.578;2023-08-21T12:10:24;13.52;;;2.95;;
35488;SDS011;21602;55.670;37.578;2023-08-21T12:12:51;6.43;;;3.05;;
35488;SDS011;21602;55.670;37.578;2023-08-21T12:15:17;5.38;;;1.65;;
35488;SDS011;21602;55.670;37.578;2023-08-21T12:17:43;5.85;;;1.70;;
35488;SDS011;21602;55.670;37.578;2023-08-21T12:20:09;3.13;;;1.50;;
35488;SDS011;21602;55.670;37.578;2023-08-21T12:22:38;2.83;;;1.52;;
35488;SDS011;21602;55.670;37.578;2023-08-21T12:25:04;1.67;;;1.20;;
35488;SDS011;21602;55.670;37.578;2023-08-21T12:27:31;12.10;;;8.43;;
35488;SDS011;21602;55.670;37.578;2023-08-21T12:29:57;24.55;;;16.20;;
35488;SDS011;21602;55.670;37.578;2023-08-21T12:32:23;16.88;;;11.73;;
35488;SDS011;21602;55.670;37.578;2023-08-21T12:34:48;25.88;;;9.50;;
35488;SDS011;21602;55.670;37.578;2023-08-21T12:37:14;37.47;;;13.05;;
35488;SDS011;21602;55.670;37.578;2023-08-21T12:39:40;14.38;;;9.77;;
35488;SDS011;21602;55.670;37.578;2023-08-21T12:42:06;47.72;;;8.48;;
35488;SDS011;21602;55.670;37.578;2023-08-21T12:44:35;5.13;;;3.07;;
35488;SDS011;21602;55.670;37.578;2023-08-21T12:47:02;4.30;;;2.10;;
35488;SDS011;21602;55.670;37.578;2023-08-21T12:49:28;16.40;;;14.23;;
35488;SDS011;21602;55.670;37.578;2023-08-21T12:51:54;3.55;;;2.10;;
35488;SDS011;21602;55.670;37.578;2023-08-21T12:54:20;2.45;;;1.60;;
35488;SDS011;21602;55.670;37.578;2023-08-21T12:56:46;7.75;;;5.07;;
35488;SDS011;21602;55.670;37.578;2023-08-21T12:59:13;4.32;;;2.50;;
35488;SDS011;21602;55.670;37.578;2023-08-21T13:01:39;9.10;;;6.82;;
35488;SDS011;21602;55.670;37.578;2023-08-21T13:04:06;10.43;;;5.68;;
35488;SDS011;21602;55.670;37.578;2023-08-21T13:06:32;6.63;;;3.13;;
35488;SDS011;21602;55.670;37.578;2023-08-21T13:08:58;4.65;;;2.28;;
35488;SDS011;21602;55.670;37.578;2023-08-21T13:11:28;8.45;;;5.38;;
35488;SDS011;21602;55.670;37.578;2023-08-21T13:13:55;3.97;;;2.85;;
35488;SDS011;21602;55.670;37.578;2023-08-21T13:16:20;12.82;;;8.73;;
35488;SDS011;21602;55.670;37.578;2023-08-21T13:18:46;5.90;;;3.67;;
35488;SDS011;21602;55.670;37.578;2023-08-21T13:21:12;6.80;;;4.75;;
35488;SDS011;21602;55.670;37.578;2023-08-21T13:23:38;4.80;;;2.28;;
35488;SDS011;21602;55.670;37.578;2023-08-21T13:26:05;5.45;;;1.88;;
35488;SDS011;21602;55.670;37.578;2023-08-21T13:28:31;3.00;;;1.90;;
35488;SDS011;21602;55.670;37.578;2023-08-21T13:30:57;5.63;;;1.60;;
35488;SDS011;21602;55.670;37.578;2023-08-21T13:33:23;6.10;;;4.57;;
35488;SDS011;21602;55.670;37.578;2023-08-21T13:35:49;8.07;;;2.28;;
35488;SDS011;21602;55.670;37.578;2023-08-21T13:38:15;7.70;;;3.67;;
35488;SDS011;21602;55.670;37.578;2023-08-21T13:40:41;3.42;;;2.13;;
35488;SDS011;21602;55.670;37.578;2023-08-21T13:43:07;5.28;;;2.15;;
35488;SDS011;21602;55.670;37.578;2023-08-21T13:45:35;7.60;;;2.50;;
35488;SDS011;21602;55.670;37.578;2023-08-21T13:48:01;3.90;;;1.92;;
35488;SDS011;21602;55.670;37.578;2023-08-21T13:50:26;5.82;;;1.70;;
35488;SDS011;21602;55.670;37.578;2023-08-21T13:52:52;4.97;;;1.75;;
35488;SDS011;21602;55.670;37.578;2023-08-21T13:55:18;5.78;;;1.48;;
35488;SDS011;21602;55.670;37.578;2023-08-21T13:57:45;6.40;;;1.70;;
35488;SDS011;21602;55.670;37.578;2023-08-21T14:00:11;4.93;;;1.58;;
35488;SDS011;21602;55.670;37.578;2023-08-21T14:02:38;7.93;;;1.83;;
35488;SDS011;21602;55.670;37.578;2023-08-21T14:05:08;4.40;;;2.10;;
35488;SDS011;21602;55.670;37.578;2023-08-21T14:07:36;4.25;;;3.22;;
35488;SDS011;21602;55.670;37.578;2023-08-21T14:10:02;8.68;;;2.90;;
35488;SDS011;21602;55.670;37.578;2023-08-21T14:12:30;9.50;;;2.42;;
35488;SDS011;21602;55.670;37.578;2023-08-21T14:17:24;9.43;;;1.85;;
35488;SDS011;21602;55.670;37.578;2023-08-21T14:19:50;31.30;;;5.20;;
35488;SDS011;21602;55.670;37.578;2023-08-21T14:22:17;25.20;;;4.47;;
35488;SDS011;21602;55.670;37.578;2023-08-21T14:24:44;5.47;;;2.10;;
35488;SDS011;21602;55.670;37.578;2023-08-21T14:27:10;4.85;;;1.65;;
35488;SDS011;21602;55.670;37.578;2023-08-21T14:29:37;3.13;;;1.43;;
35488;SDS011;21602;55.670;37.578;2023-08-21T14:32:03;4.53;;;1.55;;
35488;SDS011;21602;55.670;37.578;2023-08-21T14:34:29;3.72;;;1.80;;
35488;SDS011;21602;55.670;37.578;2023-08-21T14:36:55;3.03;;;2.15;;
35488;SDS011;21602;55.670;37.578;2023-08-21T14:39:22;3.60;;;1.65;;
35488;SDS011;21602;55.670;37.578;2023-08-21T14:41:58;2.85;;;1.88;;
35488;SDS011;21602;55.670;37.578;2023-08-21T14:44:24;5.82;;;1.83;;
35488;SDS011;21602;55.670;37.578;2023-08-21T14:46:52;5.65;;;2.10;;
35488;SDS011;21602;55.670;37.578;2023-08-21T14:49:20;5.15;;;1.90;;
35488;SDS011;21602;55.670;37.578;2023-08-21T14:51:46;4.05;;;1.90;;
35488;SDS011;21602;55.670;37.578;2023-08-21T14:54:12;7.38;;;1.77;;
35488;SDS011;21602;55.670;37.578;2023-08-21T14:56:38;3.83;;;1.73;;
35488;SDS011;21602;55.670;37.578;2023-08-21T14:59:11;4.82;;;2.15;;